Mayaguez, PR

9:51 PM AST on September 02, 2014 (GMT -0400)
Joyudas ,PR | Change Station
CLOSE
Current Station
Personal Weather Station
Location: Cabo Rojo, PR
Elevation: 20 ft
Nearby Weather Stations

Elev 20 ft 18.11 °N, 67.18 °W | Updated 13 seconds ago

Clear
Clear
81.7 °F
Feels Like 84 °F
N
0.0
Wind Variable Wind from North
Gusts 0.0 mph

Today
High -- | Low -- °F
--% Chance of Precip.
Yesterday
High -- | Low -- °F
Precip. -- in
6:14 AM 6:41 PM
First Quarter, 57% visible
Pressure 30.00 in
Visibility 10.0 miles
Clouds Clear
Heat Index 84 °F
Dew Point 67 °F
Humidity 61%
Rainfall 0.00 in
Snow Depth Not available.
UV 0.0 out of 12
Pollen Not available.
Air Quality Not available.
Flu Activity Not available.
METAR TJBQ 030050Z 00000KT 10SM SKC 26/24 A3000 RMK RWY08 ATIS P

More Conditions Fewer Conditions

Pressure 30.00 in
Visibility 10.0 miles
Clouds Clear
Heat Index 84 °F
Dew Point 67 °F
Humidity 61%
Rainfall 0.00 in
Snow Depth Not available.
UV 0.0 out of 12
Pollen Not available.
Air Quality Not available.
Flu Activity Not available.
METAR TJBQ 030050Z 00000KT 10SM SKC 26/24 A3000 RMK RWY08 ATIS P

More Conditions Fewer Conditions

10-Day Weather Forecast

Almanac

Astronomy

Sep. 02, 2014 Rise Set
Actual Time 6:14 AM AST 6:41 PM AST
Civil Twilight 5:52 AM AST 7:03 PM AST
Nautical Twilight 5:26 AM AST 7:29 PM AST
Astronomical Twilight 5:00 AM AST 7:55 PM AST
Moon 12:56 PM AST (9/2) No Moon Set
Length of Visible Light 13h 11m
Length of Day
12h 27m
Tomorrow will be 1m 0s shorter.
First Quarter, 57% of the Moon is Illuminated
Today
First Quarter
Sep 8
Full
Sep 15
Last Quarter
Sep 24
New
Oct 1
First Quarter

Community

WunderPhotos

Upload Photos

1,749,829 photos uploaded!

Nearby

Snow Depth

Station Depth Elevation
No new snow has been reported.

Earthquake Activity

City Distance Mag. Time & Date
No recent earthquake activity has been reported nearby.
Minimum magnitude displayed is 2.5.

Coastal Water Temperatures

Place Temperature
Mayaguez, PR 84.9 °F
Magueyes Islands, PR 84.0 °F
Mona Island, PR 81.0 °F

Nearby Weather Stations